createdAt,value
2023-02-25T00:01:48.726Z,99984.88
2023-02-25T00:04:22.997Z,99970.84
2023-02-25T00:06:51.010Z,99975.16
2023-02-25T00:09:18.814Z,99972.22
2023-02-25T00:11:47.415Z,99966.78
2023-02-25T00:14:14.898Z,99965.13
2023-02-25T00:16:42.846Z,99952.53
2023-02-25T00:19:10.660Z,99948.31
2023-02-25T00:21:38.533Z,99942.50
2023-02-25T00:24:15.949Z,99934.03
2023-02-25T00:26:45.247Z,99939.09
2023-02-25T00:29:15.371Z,99935.63
2023-02-25T00:31:44.099Z,99933.06
2023-02-25T00:34:12.143Z,99926.13
2023-02-25T00:36:40.197Z,99928.16
2023-02-25T00:39:09.219Z,99924.69
2023-02-25T00:41:37.333Z,99925.06
2023-02-25T00:44:05.528Z,99913.72
2023-02-25T00:46:34.020Z,99905.00
2023-02-25T00:49:02.338Z,99903.22
2023-02-25T00:51:32.491Z,99894.00
2023-02-25T00:54:00.975Z,99890.91
2023-02-25T00:56:28.916Z,99884.75
2023-02-25T00:58:56.995Z,99877.72
2023-02-25T01:01:30.619Z,99873.69
2023-02-25T01:03:59.206Z,99873.72
2023-02-25T01:06:29.083Z,99881.56
2023-02-25T01:08:59.485Z,99868.81
2023-02-25T01:11:32.882Z,99872.78
2023-02-25T01:14:03.745Z,99867.31
2023-02-25T01:16:33.907Z,99854.06
2023-02-25T01:19:06.142Z,99852.25
2023-02-25T01:21:37.666Z,99847.53
2023-02-25T01:24:14.243Z,99845.28
2023-02-25T01:26:44.627Z,99839.72
2023-02-25T01:29:17.487Z,99836.38
2023-02-25T01:31:46.137Z,99835.53
2023-02-25T01:34:16.570Z,99828.47
2023-02-25T01:36:45.806Z,99818.94
2023-02-25T01:39:15.818Z,99820.00
2023-02-25T01:41:46.683Z,99811.28
2023-02-25T01:44:25.101Z,99806.41
2023-02-25T01:46:54.127Z,99796.31
2023-02-25T01:49:46.034Z,99804.78
2023-02-25T01:52:24.331Z,99785.84
2023-02-25T01:54:58.396Z,99780.94
2023-02-25T01:57:27.053Z,99769.78
2023-02-25T01:59:55.722Z,99767.59
2023-02-25T02:02:26.666Z,99767.28
2023-02-25T02:04:55.869Z,99755.59
2023-02-25T02:07:24.937Z,99753.22
2023-02-25T02:09:59.973Z,99747.63
2023-02-25T02:12:48.922Z,99739.91
2023-02-25T02:15:16.480Z,99738.34
2023-02-25T02:18:00.599Z,99739.28
2023-02-25T02:20:43.088Z,99742.63
2023-02-25T02:23:45.310Z,99730.25
2023-02-25T02:26:44.904Z,99723.50
2023-02-25T02:29:22.498Z,99721.84
2023-02-25T02:32:15.823Z,99730.97
2023-02-25T02:35:01.650Z,99730.63
2023-02-25T02:37:33.691Z,99732.31
2023-02-25T02:40:01.649Z,99724.34
2023-02-25T02:43:02.247Z,99726.56
2023-02-25T02:45:41.878Z,99723.25
2023-02-25T02:48:34.073Z,99721.34
2023-02-25T02:51:06.291Z,99723.84
2023-02-25T02:53:42.203Z,99720.38
2023-02-25T02:56:14.775Z,99715.03
2023-02-25T02:58:53.011Z,99724.91
2023-02-25T03:01:30.451Z,99734.78
2023-02-25T03:04:08.492Z,99726.34
2023-02-25T03:06:42.400Z,99732.53
2023-02-25T03:09:16.321Z,99730.75
2023-02-25T03:11:45.088Z,99722.41
2023-02-25T03:14:14.758Z,99721.81
2023-02-25T03:16:51.751Z,99722.41
2023-02-25T03:19:24.732Z,99716.84
2023-02-25T03:21:58.797Z,99711.59
2023-02-25T03:24:33.229Z,99708.97
2023-02-25T03:27:15.978Z,99704.69
2023-02-25T03:29:43.924Z,99693.84
2023-02-25T03:32:16.141Z,99699.34
2023-02-25T03:34:49.554Z,99700.91
2023-02-25T03:37:28.466Z,99697.94
2023-02-25T03:40:00.935Z,99699.81
2023-02-25T03:42:33.981Z,99700.88
2023-02-25T03:45:05.473Z,99695.88
2023-02-25T03:47:37.965Z,99692.91
2023-02-25T03:50:31.790Z,99690.44
2023-02-25T03:53:03.672Z,99689.94
2023-02-25T03:55:49.960Z,99685.28
2023-02-25T03:58:17.654Z,99681.88
2023-02-25T04:00:48.913Z,99687.91
2023-02-25T04:03:16.914Z,99682.22
2023-02-25T04:05:44.993Z,99679.72
2023-02-25T04:08:16.525Z,99686.38
2023-02-25T04:10:47.075Z,99687.47
2023-02-25T04:13:17.444Z,99681.16
2023-02-25T04:15:45.856Z,99678.41
2023-02-25T04:18:15.225Z,99682.56
2023-02-25T04:20:43.279Z,99676.16
2023-02-25T04:23:16.732Z,99676.75
2023-02-25T04:25:44.894Z,99679.25
2023-02-25T04:28:12.359Z,99688.53
2023-02-25T04:30:40.324Z,99672.72
2023-02-25T04:33:08.190Z,99675.06
2023-02-25T04:35:36.186Z,99684.47
2023-02-25T04:38:03.975Z,99690.16
2023-02-25T04:40:31.608Z,99696.00
2023-02-25T04:42:59.964Z,99695.50
2023-02-25T04:45:28.650Z,99692.63
2023-02-25T04:48:00.032Z,99691.78
2023-02-25T04:50:27.536Z,99688.06
2023-02-25T04:52:55.170Z,99704.63
2023-02-25T04:55:23.309Z,99697.84
2023-02-25T04:57:51.031Z,99690.00
2023-02-25T05:00:24.324Z,99690.97
2023-02-25T05:02:52.632Z,99694.66
2023-02-25T05:05:20.543Z,99686.34
2023-02-25T05:07:48.541Z,99682.53
2023-02-25T05:10:16.143Z,99674.78
2023-02-25T05:12:43.742Z,99667.97
2023-02-25T05:15:12.266Z,99673.00
2023-02-25T05:17:40.250Z,99674.53
2023-02-25T05:20:12.889Z,99681.69
2023-02-25T05:22:41.865Z,99678.97
2023-02-25T05:25:11.289Z,99681.72
2023-02-25T05:27:39.407Z,99685.06
2023-02-25T05:30:08.137Z,99683.75
2023-02-25T05:32:36.128Z,99677.06
2023-02-25T05:35:03.837Z,99679.59
2023-02-25T05:37:32.228Z,99670.56
2023-02-25T05:40:03.464Z,99657.59
2023-02-25T05:42:31.844Z,99649.97
2023-02-25T05:44:59.748Z,99646.88
2023-02-25T05:47:27.924Z,99640.47
2023-02-25T05:49:55.462Z,99639.75
2023-02-25T05:52:23.973Z,99655.13
2023-02-25T05:54:51.512Z,99653.34
2023-02-25T05:57:19.615Z,99639.41
2023-02-25T05:59:47.807Z,99637.53
2023-02-25T06:02:15.881Z,99636.22
2023-02-25T06:04:43.414Z,99631.78
2023-02-25T06:07:11.368Z,99633.72
2023-02-25T06:09:39.966Z,99628.84
2023-02-25T06:12:08.287Z,99628.13
2023-02-25T06:14:36.272Z,99631.22
2023-02-25T06:17:04.772Z,99643.78
2023-02-25T06:19:32.324Z,99638.22
2023-02-25T06:22:00.290Z,99642.25
2023-02-25T06:24:28.136Z,99630.97
2023-02-25T06:26:56.888Z,99628.94
2023-02-25T06:29:25.031Z,99637.53
2023-02-25T06:31:55.000Z,99637.97
2023-02-25T06:34:22.999Z,99626.69
2023-02-25T06:36:51.562Z,99629.78
2023-02-25T06:39:19.477Z,99628.78
2023-02-25T06:41:47.015Z,99629.28
2023-02-25T06:44:15.917Z,99637.56
2023-02-25T06:46:44.538Z,99626.34
2023-02-25T06:49:12.927Z,99628.13
2023-02-25T06:51:41.296Z,99633.22
2023-02-25T06:54:08.760Z,99633.66
2023-02-25T06:56:36.781Z,99633.56
2023-02-25T06:59:04.434Z,99638.88
2023-02-25T07:01:32.256Z,99641.63
2023-02-25T07:04:00.768Z,99640.88
2023-02-25T07:06:28.909Z,99638.88
2023-02-25T07:08:57.391Z,99631.13
2023-02-25T07:11:24.996Z,99629.28
2023-02-25T07:13:52.962Z,99619.97
2023-02-25T07:16:22.129Z,99609.63
2023-02-25T07:18:50.942Z,99613.53
2023-02-25T07:21:19.229Z,99616.81
2023-02-25T07:23:47.250Z,99626.56
2023-02-25T07:26:16.280Z,99624.00
2023-02-25T07:28:44.191Z,99618.38
2023-02-25T07:31:18.227Z,99615.59
2023-02-25T07:33:47.057Z,99614.94
2023-02-25T07:36:15.531Z,99612.81
2023-02-25T07:38:43.584Z,99603.00
2023-02-25T07:41:14.309Z,99601.66
2023-02-25T07:43:42.927Z,99595.19
2023-02-25T07:46:11.399Z,99594.59
2023-02-25T07:48:39.251Z,99587.69
2023-02-25T07:51:13.265Z,99585.19
2023-02-25T07:53:41.657Z,99588.78
2023-02-25T07:56:10.295Z,99576.91
2023-02-25T07:58:38.781Z,99566.13
2023-02-25T08:01:11.933Z,99570.53
2023-02-25T08:03:39.938Z,99570.53
2023-02-25T08:06:09.190Z,99566.53
2023-02-25T08:08:38.286Z,99560.44
2023-02-25T08:11:11.978Z,99563.34
2023-02-25T08:13:39.672Z,99556.44
2023-02-25T08:16:09.698Z,99555.72
2023-02-25T08:18:38.281Z,99552.13
2023-02-25T08:21:06.544Z,99540.34
2023-02-25T08:23:34.528Z,99538.94
2023-02-25T08:26:02.870Z,99531.53
2023-02-25T08:28:34.324Z,99525.38
2023-02-25T08:31:04.449Z,99523.78
2023-02-25T08:33:32.065Z,99523.94
2023-02-25T08:36:12.052Z,99518.09
2023-02-25T08:38:39.940Z,99520.28
2023-02-25T08:41:08.844Z,99526.66
2023-02-25T08:43:37.478Z,99521.25
2023-02-25T08:46:06.798Z,99523.34
2023-02-25T08:48:36.250Z,99515.75
2023-02-25T08:51:09.040Z,99522.97
2023-02-25T08:53:39.121Z,99511.94
2023-02-25T08:56:10.066Z,99507.06
2023-02-25T08:58:39.521Z,99511.00
2023-02-25T09:01:09.231Z,99509.09
2023-02-25T09:03:37.605Z,99519.44
2023-02-25T09:06:05.488Z,99514.34
2023-02-25T09:08:33.814Z,99518.28
2023-02-25T09:11:05.871Z,99507.81
2023-02-25T09:13:33.388Z,99510.28
2023-02-25T09:16:01.490Z,99499.03
2023-02-25T09:18:31.198Z,99504.47
2023-02-25T09:20:59.341Z,99500.84
2023-02-25T09:23:26.953Z,99496.56
2023-02-25T09:25:54.545Z,99496.38
2023-02-25T09:28:24.468Z,99495.28
2023-02-25T09:30:53.257Z,99491.59
2023-02-25T09:33:21.241Z,99476.56
2023-02-25T09:35:49.186Z,99488.66
2023-02-25T09:38:17.523Z,99485.34
2023-02-25T09:40:49.631Z,99480.38
2023-02-25T09:43:42.595Z,99478.53
2023-02-25T09:46:14.643Z,99475.91
2023-02-25T09:48:54.119Z,99464.53
2023-02-25T09:51:34.695Z,99463.84
2023-02-25T09:54:30.381Z,99461.81
2023-02-25T09:57:01.906Z,99467.63
2023-02-25T09:59:31.268Z,99468.31
2023-02-25T10:02:02.327Z,99471.59
2023-02-25T10:04:46.659Z,99471.28
2023-02-25T10:07:27.024Z,99476.69
2023-02-25T10:10:02.632Z,99479.38
2023-02-25T10:12:39.432Z,99475.41
2023-02-25T10:15:32.109Z,99470.63
2023-02-25T10:18:15.400Z,99472.94
2023-02-25T10:20:47.964Z,99467.47
2023-02-25T10:23:37.889Z,99463.09
2023-02-25T10:26:18.172Z,99461.19
2023-02-25T10:28:55.609Z,99459.22
2023-02-25T10:31:24.046Z,99456.72
2023-02-25T10:33:53.929Z,99456.00
2023-02-25T10:36:39.589Z,99459.91
2023-02-25T10:39:11.526Z,99458.41
2023-02-25T10:41:39.181Z,99462.28
2023-02-25T10:44:15.955Z,99457.16
2023-02-25T10:46:43.924Z,99458.72
2023-02-25T10:49:16.483Z,99458.13
2023-02-25T10:51:58.486Z,99462.78
2023-02-25T10:54:29.447Z,99454.03
2023-02-25T10:57:02.456Z,99452.00
2023-02-25T10:59:39.422Z,99449.81
2023-02-25T11:02:25.793Z,99439.47
2023-02-25T11:04:54.922Z,99447.47
2023-02-25T11:07:38.359Z,99441.09
2023-02-25T11:10:21.742Z,99441.97
2023-02-25T11:12:55.524Z,99443.59
2023-02-25T11:15:45.647Z,99440.06
2023-02-25T11:18:23.867Z,99435.22
2023-02-25T11:20:57.546Z,99434.91
2023-02-25T11:23:30.472Z,99442.41
2023-02-25T11:25:58.445Z,99430.81
2023-02-25T11:28:29.382Z,99423.44
2023-02-25T11:31:17.487Z,99427.59
2023-02-25T11:33:57.362Z,99423.75
2023-02-25T11:36:30.932Z,99419.72
2023-02-25T11:39:26.616Z,99412.38
2023-02-25T11:41:57.196Z,99413.19
2023-02-25T11:44:42.713Z,99400.22
2023-02-25T11:50:17.024Z,99392.09
2023-02-25T11:53:13.403Z,99391.94
2023-02-25T11:56:16.053Z,99391.72
2023-02-25T11:59:13.397Z,99376.97
2023-02-25T12:02:19.492Z,99374.44
2023-02-25T12:05:15.514Z,99361.94
2023-02-25T12:08:33.107Z,99366.81
2023-02-25T12:11:19.688Z,99366.72
2023-02-25T12:14:05.059Z,99356.63
2023-02-25T12:17:01.001Z,99346.19
2023-02-25T12:19:47.213Z,99347.38
2023-02-25T12:22:15.337Z,99334.91
2023-02-25T12:24:45.778Z,99331.53
2023-02-25T12:27:47.560Z,99332.88
2023-02-25T12:30:42.901Z,99315.47
2023-02-25T12:33:41.850Z,99323.44
2023-02-25T12:37:01.874Z,99322.75
2023-02-25T12:39:47.907Z,99318.63
2023-02-25T12:42:49.427Z,99316.59
2023-02-25T12:45:25.998Z,99321.78
2023-02-25T12:48:24.522Z,99307.75
2023-02-25T12:50:52.040Z,99298.97
2023-02-25T12:53:26.620Z,99289.28
2023-02-25T12:56:44.659Z,99290.00
2023-02-25T12:59:47.556Z,99282.97
2023-02-25T13:02:40.897Z,99277.38
2023-02-25T13:05:46.349Z,99274.63
2023-02-25T13:08:38.225Z,99272.81
2023-02-25T13:12:09.971Z,99267.19
2023-02-25T13:14:53.582Z,99273.31
2023-02-25T13:17:46.399Z,99261.53
2023-02-25T13:20:35.248Z,99262.81
2023-02-25T13:23:03.245Z,99267.59
2023-02-25T13:26:02.409Z,99263.59
2023-02-25T13:28:43.116Z,99265.41
2023-02-25T13:31:25.593Z,99254.09
2023-02-25T13:34:38.894Z,99252.53
2023-02-25T13:37:23.985Z,99252.44
2023-02-25T13:40:12.330Z,99245.97
2023-02-25T13:43:07.018Z,99250.38
2023-02-25T13:46:02.493Z,99248.00
2023-02-25T13:48:52.688Z,99242.09
2023-02-25T13:52:09.831Z,99247.28
2023-02-25T13:54:46.530Z,99239.06
2023-02-25T13:57:43.123Z,99231.28
2023-02-25T14:00:26.301Z,99225.94
2023-02-25T14:03:14.978Z,99228.19
2023-02-25T14:06:00.977Z,99229.44
2023-02-25T14:09:09.778Z,99223.09
2023-02-25T14:11:43.786Z,99217.91
2023-02-25T14:14:20.693Z,99218.56
2023-02-25T14:17:24.401Z,99210.97
2023-02-25T14:20:49.002Z,99218.16
2023-02-25T14:23:25.682Z,99207.22
2023-02-25T14:26:22.803Z,99211.84
2023-02-25T14:29:39.265Z,99201.41
2023-02-25T14:32:18.630Z,99196.44
2023-02-25T14:35:15.927Z,99197.91
2023-02-25T14:38:03.006Z,99196.84
2023-02-25T14:40:34.455Z,99187.78
2023-02-25T14:43:14.752Z,99195.66
2023-02-25T14:45:50.935Z,99194.72
2023-02-25T14:48:26.825Z,99191.47
2023-02-25T14:51:39.752Z,99195.13
2023-02-25T14:54:34.307Z,99186.34
2023-02-25T14:57:20.835Z,99188.81
2023-02-25T15:00:07.018Z,99197.59
2023-02-25T15:02:45.276Z,99199.25
2023-02-25T15:05:34.298Z,99201.25
2023-02-25T15:08:17.842Z,99203.97
2023-02-25T15:11:11.956Z,99194.59
2023-02-25T15:14:04.694Z,99203.53
2023-02-25T15:16:53.761Z,99205.91
2023-02-25T15:19:34.484Z,99206.53
2023-02-25T15:22:24.036Z,99201.53
2023-02-25T15:25:13.051Z,99209.97
2023-02-25T15:27:41.082Z,99211.84
2023-02-25T15:30:18.511Z,99211.97
2023-02-25T15:33:16.142Z,99209.22
2023-02-25T15:35:43.588Z,99204.00
2023-02-25T15:38:13.633Z,99210.41
2023-02-25T15:40:45.094Z,99220.47
2023-02-25T15:43:14.243Z,99219.44
2023-02-25T15:46:08.114Z,99215.91
2023-02-25T15:48:39.101Z,99223.34
2023-02-25T15:51:31.862Z,99222.31
2023-02-25T15:54:00.254Z,99227.22
2023-02-25T15:56:46.549Z,99230.72
2023-02-25T15:59:48.153Z,99235.34
2023-02-25T16:02:33.288Z,99235.16
2023-02-25T16:05:28.163Z,99248.44
2023-02-25T16:08:17.534Z,99245.66
2023-02-25T16:10:49.507Z,99246.66
2023-02-25T16:13:27.506Z,99243.28
2023-02-25T16:15:57.676Z,99243.75
2023-02-25T16:18:32.964Z,99247.03
2023-02-25T16:21:07.839Z,99258.66
2023-02-25T16:23:41.156Z,99254.81
2023-02-25T16:26:20.680Z,99254.31
2023-02-25T16:29:01.238Z,99252.22
2023-02-25T16:31:49.638Z,99252.84
2023-02-25T16:34:27.440Z,99246.19
2023-02-25T16:37:07.223Z,99250.19
2023-02-25T16:39:36.232Z,99262.00
2023-02-25T16:42:08.738Z,99253.22
2023-02-25T16:44:39.094Z,99251.91
2023-02-25T16:47:23.422Z,99258.19
2023-02-25T16:49:53.251Z,99257.88
2023-02-25T16:52:30.443Z,99249.84
2023-02-25T16:55:01.499Z,99254.13
2023-02-25T16:57:29.562Z,99253.00
2023-02-25T17:00:17.742Z,99258.59
2023-02-25T17:02:48.526Z,99252.16
2023-02-25T17:05:32.540Z,99256.16
2023-02-25T17:08:02.917Z,99250.50
2023-02-25T17:10:43.750Z,99256.16
2023-02-25T17:13:17.578Z,99269.84
2023-02-25T17:15:46.198Z,99260.78
2023-02-25T17:18:31.172Z,99254.66
2023-02-25T17:21:03.927Z,99261.72
2023-02-25T17:23:39.441Z,99266.81
2023-02-25T17:26:09.674Z,99271.09
2023-02-25T17:28:37.430Z,99274.22
2023-02-25T17:31:15.282Z,99276.84
2023-02-25T17:33:49.633Z,99279.97
2023-02-25T17:36:22.227Z,99281.94
2023-02-25T17:38:55.761Z,99277.97
2023-02-25T17:41:24.897Z,99288.31
2023-02-25T17:43:52.770Z,99283.38
2023-02-25T17:46:24.031Z,99288.28
2023-02-25T17:48:57.003Z,99281.06
2023-02-25T17:51:33.319Z,99284.88
2023-02-25T17:54:09.481Z,99281.53
2023-02-25T17:56:38.095Z,99282.66
2023-02-25T17:59:42.429Z,99282.75
2023-02-25T18:02:22.909Z,99269.34
2023-02-25T18:05:07.739Z,99270.75
2023-02-25T18:07:37.960Z,99268.50
2023-02-25T18:10:26.424Z,99271.88
2023-02-25T18:12:55.478Z,99270.22
2023-02-25T18:15:26.569Z,99269.44
2023-02-25T18:17:56.998Z,99266.75
2023-02-25T18:20:44.136Z,99270.88
2023-02-25T18:23:21.110Z,99277.41
2023-02-25T18:26:07.481Z,99274.56
2023-02-25T18:28:36.221Z,99267.38
2023-02-25T18:31:04.967Z,99269.25
2023-02-25T18:33:32.973Z,99268.59
2023-02-25T18:36:01.176Z,99262.88
2023-02-25T18:38:30.963Z,99266.16
2023-02-25T18:40:59.623Z,99259.31
2023-02-25T18:43:30.750Z,99260.66
2023-02-25T18:45:59.658Z,99262.72
2023-02-25T18:48:28.201Z,99259.59
2023-02-25T18:50:58.334Z,99255.50
2023-02-25T18:53:27.360Z,99254.78
2023-02-25T18:55:56.727Z,99257.06
2023-02-25T18:58:25.860Z,99244.44
2023-02-25T19:00:56.528Z,99240.84
2023-02-25T19:03:40.161Z,99242.88
2023-02-25T19:06:07.758Z,99250.19
2023-02-25T19:08:35.368Z,99246.63
2023-02-25T19:11:04.302Z,99243.03
2023-02-25T19:13:43.247Z,99250.25
2023-02-25T19:16:11.461Z,99252.28
2023-02-25T19:18:42.943Z,99255.34
2023-02-25T19:21:14.901Z,99258.44
2023-02-25T19:23:42.692Z,99263.97
2023-02-25T19:26:11.187Z,99258.16
2023-02-25T19:28:39.367Z,99260.09
2023-02-25T19:31:08.017Z,99256.03
2023-02-25T19:33:35.917Z,99266.81
2023-02-25T19:36:05.562Z,99262.44
2023-02-25T19:38:33.330Z,99257.69
2023-02-25T19:41:04.225Z,99256.34
2023-02-25T19:43:33.076Z,99254.78
2023-02-25T19:46:01.106Z,99261.16
2023-02-25T19:48:28.674Z,99250.50
2023-02-25T19:50:57.422Z,99253.06
2023-02-25T19:53:26.219Z,99259.22
2023-02-25T19:55:57.172Z,99253.88
2023-02-25T19:58:25.081Z,99255.34
2023-02-25T20:00:53.109Z,99256.03
2023-02-25T20:03:21.150Z,99254.22
2023-02-25T20:05:49.736Z,99251.94
2023-02-25T20:08:17.313Z,99257.06
2023-02-25T20:10:44.851Z,99255.06
2023-02-25T20:13:12.537Z,99261.50
2023-02-25T20:15:41.058Z,99250.53
2023-02-25T20:18:08.685Z,99256.41
2023-02-25T20:20:37.258Z,99245.75
2023-02-25T20:23:05.408Z,99253.94
2023-02-25T20:25:33.652Z,99244.28
2023-02-25T20:28:01.681Z,99245.91
2023-02-25T20:30:29.781Z,99235.50
2023-02-25T20:32:59.389Z,99237.13
2023-02-25T20:35:27.700Z,99238.91
2023-02-25T20:38:21.909Z,99239.81
2023-02-25T20:40:49.722Z,99231.75
2023-02-25T20:43:18.619Z,99234.72
2023-02-25T20:45:46.549Z,99237.09
2023-02-25T20:48:30.303Z,99231.38
2023-02-25T20:50:59.388Z,99234.69
2023-02-25T20:53:27.091Z,99233.84
2023-02-25T20:55:57.595Z,99229.34
2023-02-25T20:58:26.024Z,99228.22
2023-02-25T21:00:53.667Z,99222.81
2023-02-25T21:03:21.187Z,99217.88
2023-02-25T21:05:49.149Z,99223.22
2023-02-25T21:08:17.225Z,99220.97
2023-02-25T21:10:45.988Z,99212.53
2023-02-25T21:13:15.798Z,99199.63
2023-02-25T21:15:44.063Z,99204.72
2023-02-25T21:18:11.572Z,99201.78
2023-02-25T21:20:40.053Z,99201.72
2023-02-25T21:23:08.979Z,99204.50
2023-02-25T21:25:38.347Z,99198.72
2023-02-25T21:28:05.964Z,99205.53
2023-02-25T21:30:34.068Z,99194.22
2023-02-25T21:33:02.863Z,99189.69
2023-02-25T21:35:30.928Z,99181.56
2023-02-25T21:37:58.832Z,99184.59
2023-02-25T21:40:27.157Z,99181.72
2023-02-25T21:42:55.553Z,99189.03
2023-02-25T21:45:23.662Z,99182.19
2023-02-25T21:47:51.415Z,99176.78
2023-02-25T21:50:19.207Z,99166.63
2023-02-25T21:52:47.417Z,99167.31
2023-02-25T21:55:16.037Z,99161.69
2023-02-25T21:57:43.704Z,99161.03
2023-02-25T22:00:12.179Z,99161.53
2023-02-25T22:02:40.740Z,99158.06
2023-02-25T22:05:08.722Z,99149.88
2023-02-25T22:07:36.888Z,99156.41
2023-02-25T22:10:05.265Z,99150.03
2023-02-25T22:12:32.722Z,99150.56
2023-02-25T22:15:00.228Z,99145.06
2023-02-25T22:17:28.714Z,99152.22
2023-02-25T22:19:56.820Z,99145.06
2023-02-25T22:22:25.077Z,99143.69
2023-02-25T22:24:52.525Z,99144.25
2023-02-25T22:27:21.078Z,99142.44
2023-02-25T22:29:49.199Z,99140.22
2023-02-25T22:32:18.197Z,99140.50
2023-02-25T22:34:46.512Z,99139.91
2023-02-25T22:37:14.585Z,99127.13
2023-02-25T22:39:43.295Z,99132.16
2023-02-25T22:42:11.374Z,99135.72
2023-02-25T22:44:39.966Z,99133.22
2023-02-25T22:47:07.610Z,99136.38
2023-02-25T22:49:35.111Z,99131.78
2023-02-25T22:52:03.712Z,99135.75
2023-02-25T22:54:32.189Z,99134.94
2023-02-25T22:56:59.835Z,99130.91
2023-02-25T22:59:27.395Z,99126.59
2023-02-25T23:01:55.020Z,99127.13
2023-02-25T23:04:22.656Z,99131.72
2023-02-25T23:06:54.068Z,99137.03
2023-02-25T23:09:22.673Z,99131.78
2023-02-25T23:11:51.047Z,99130.56
2023-02-25T23:14:18.956Z,99133.19
2023-02-25T23:16:47.064Z,99137.47
2023-02-25T23:19:18.274Z,99128.72
2023-02-25T23:21:46.446Z,99126.84
2023-02-25T23:24:18.761Z,99124.13
2023-02-25T23:26:50.653Z,99132.63
2023-02-25T23:29:19.029Z,99126.09
2023-02-25T23:31:48.506Z,99125.78
2023-02-25T23:34:23.326Z,99126.38
2023-02-25T23:36:56.038Z,99128.19
2023-02-25T23:39:24.240Z,99125.94
2023-02-25T23:41:51.774Z,99125.31
2023-02-25T23:44:20.212Z,99119.56
2023-02-25T23:46:47.721Z,99118.16
2023-02-25T23:49:16.792Z,99119.78
2023-02-25T23:51:46.772Z,99128.81
2023-02-25T23:54:17.669Z,99128.25
2023-02-25T23:56:45.543Z,99123.41
2023-02-25T23:59:13.236Z,99123.72
